createdAt,value
2022-11-29T00:01:22.240Z,95484.41
2022-11-29T00:03:20.763Z,95474.22
2022-11-29T00:05:19.118Z,95481.94
2022-11-29T00:07:17.278Z,95474.31
2022-11-29T00:09:15.609Z,95484.53
2022-11-29T00:11:36.024Z,95475.75
2022-11-29T00:13:34.832Z,95475.69
2022-11-29T00:15:36.965Z,95486.91
2022-11-29T00:17:35.183Z,95476.00
2022-11-29T00:19:34.756Z,95477.22
2022-11-29T00:21:33.226Z,95479.81
2022-11-29T00:23:31.523Z,95487.72
2022-11-29T00:25:29.727Z,95485.28
2022-11-29T00:27:27.924Z,95481.03
2022-11-29T00:29:28.885Z,95486.34
2022-11-29T00:31:30.373Z,95487.28
2022-11-29T00:33:29.247Z,95485.75
2022-11-29T00:35:27.455Z,95490.03
2022-11-29T00:37:25.711Z,95487.44
2022-11-29T00:39:24.027Z,95485.59
2022-11-29T00:41:22.601Z,95485.66
2022-11-29T00:43:20.885Z,95491.09
2022-11-29T00:45:20.715Z,95498.03
2022-11-29T00:47:18.879Z,95488.72
2022-11-29T00:49:17.414Z,95495.63
2022-11-29T00:51:15.652Z,95489.56
2022-11-29T00:53:14.045Z,95491.22
2022-11-29T00:55:12.330Z,95493.53
2022-11-29T00:57:10.491Z,95488.81
2022-11-29T00:59:08.905Z,95492.00
2022-11-29T01:01:08.599Z,95494.69
2022-11-29T01:03:09.930Z,95492.88
2022-11-29T01:05:08.699Z,95494.13
2022-11-29T01:07:07.024Z,95491.09
2022-11-29T01:09:05.929Z,95486.72
2022-11-29T01:11:10.440Z,95486.81
2022-11-29T01:13:09.097Z,95482.53
2022-11-29T01:15:09.228Z,95476.59
2022-11-29T01:17:08.921Z,95488.91
2022-11-29T01:19:08.033Z,95476.03
2022-11-29T01:21:08.453Z,95476.31
2022-11-29T01:23:06.708Z,95471.00
2022-11-29T01:25:05.894Z,95480.59
2022-11-29T01:27:04.119Z,95474.38
2022-11-29T01:29:02.374Z,95471.97
2022-11-29T01:31:00.852Z,95467.69
2022-11-29T01:33:00.556Z,95473.03
2022-11-29T01:34:58.812Z,95468.91
2022-11-29T01:36:57.073Z,95475.84
2022-11-29T01:38:55.455Z,95473.03
2022-11-29T01:41:02.073Z,95461.72
2022-11-29T01:43:00.417Z,95465.19
2022-11-29T01:45:06.376Z,95465.25
2022-11-29T01:47:04.826Z,95462.81
2022-11-29T01:49:11.448Z,95462.88
2022-11-29T01:51:09.925Z,95461.28
2022-11-29T01:53:09.970Z,95451.72
2022-11-29T01:55:10.674Z,95449.13
2022-11-29T01:57:10.449Z,95455.16
2022-11-29T01:59:13.056Z,95451.72
2022-11-29T02:01:11.953Z,95449.28
2022-11-29T02:03:12.705Z,95450.06
2022-11-29T02:05:15.179Z,95444.88
2022-11-29T02:07:13.350Z,95443.34
2022-11-29T02:09:19.665Z,95440.88
2022-11-29T02:11:42.934Z,95441.66
2022-11-29T02:13:54.146Z,95444.31
2022-11-29T02:16:00.540Z,95449.38
2022-11-29T02:18:07.109Z,95445.84
2022-11-29T02:20:33.765Z,95445.84
2022-11-29T02:22:37.220Z,95446.78
2022-11-29T02:25:07.880Z,95445.25
2022-11-29T02:27:27.063Z,95445.09
2022-11-29T02:29:38.901Z,95445.16
2022-11-29T02:32:34.101Z,95446.69
2022-11-29T02:35:02.329Z,95439.97
2022-11-29T02:37:17.283Z,95439.13
2022-11-29T02:39:53.783Z,95447.97
2022-11-29T02:42:16.075Z,95449.66
2022-11-29T02:44:42.576Z,95445.16
2022-11-29T02:46:52.562Z,95451.34
2022-11-29T02:48:56.977Z,95448.59
2022-11-29T02:51:00.317Z,95450.34
2022-11-29T02:53:07.388Z,95447.00
2022-11-29T02:55:10.954Z,95449.50
2022-11-29T02:57:20.625Z,95447.06
2022-11-29T02:59:35.962Z,95448.59
2022-11-29T03:01:41.542Z,95447.69
2022-11-29T03:03:45.899Z,95445.72
2022-11-29T03:05:51.925Z,95448.38
2022-11-29T03:08:00.304Z,95444.72
2022-11-29T03:10:06.552Z,95446.63
2022-11-29T03:12:14.241Z,95449.22
2022-11-29T03:14:18.699Z,95459.50
2022-11-29T03:16:26.917Z,95449.22
2022-11-29T03:18:43.000Z,95455.25
2022-11-29T03:20:55.355Z,95449.91
2022-11-29T03:23:15.091Z,95456.91
2022-11-29T03:25:21.958Z,95453.34
2022-11-29T03:27:25.401Z,95458.63
2022-11-29T03:29:29.004Z,95455.03
2022-11-29T03:31:31.237Z,95461.97
2022-11-29T03:33:36.949Z,95468.00
2022-11-29T03:35:42.308Z,95462.94
2022-11-29T03:37:51.404Z,95470.66
2022-11-29T03:39:57.617Z,95462.09
2022-11-29T03:42:01.140Z,95462.81
2022-11-29T03:44:08.234Z,95465.25
2022-11-29T03:46:10.121Z,95465.25
2022-11-29T03:48:14.543Z,95459.84
2022-11-29T03:50:17.795Z,95461.22
2022-11-29T03:52:23.153Z,95458.41
2022-11-29T03:54:27.366Z,95458.56
2022-11-29T03:56:31.677Z,95453.22
2022-11-29T03:58:55.497Z,95456.72
2022-11-29T04:01:16.712Z,95457.50
2022-11-29T04:03:34.487Z,95452.59
2022-11-29T04:05:56.292Z,95457.03
2022-11-29T04:08:29.965Z,95460.69
2022-11-29T04:11:01.871Z,95462.38
2022-11-29T04:13:37.131Z,95454.66
2022-11-29T04:16:10.851Z,95456.53
2022-11-29T04:18:31.452Z,95463.34
2022-11-29T04:20:51.122Z,95463.34
2022-11-29T04:23:19.323Z,95466.03
2022-11-29T04:26:06.593Z,95462.50
2022-11-29T04:28:23.051Z,95464.31
2022-11-29T04:30:22.974Z,95469.50
2022-11-29T04:33:04.668Z,95471.13
2022-11-29T04:35:29.081Z,95470.22
2022-11-29T04:37:50.548Z,95467.69
2022-11-29T04:40:05.795Z,95465.09
2022-11-29T04:42:33.028Z,95463.63
2022-11-29T04:45:09.700Z,95465.19
2022-11-29T04:47:26.735Z,95464.31
2022-11-29T04:49:42.915Z,95462.50
2022-11-29T04:52:03.949Z,95462.38
2022-11-29T04:54:10.478Z,95460.38
2022-11-29T04:56:19.163Z,95465.72
2022-11-29T04:58:26.630Z,95458.03
2022-11-29T05:00:27.316Z,95456.94
2022-11-29T05:02:34.594Z,95453.44
2022-11-29T05:04:42.435Z,95456.03
2022-11-29T05:06:51.250Z,95456.91
2022-11-29T05:08:57.220Z,95462.97
2022-11-29T05:11:02.359Z,95459.63
2022-11-29T05:13:10.763Z,95465.88
2022-11-29T05:15:28.952Z,95455.34
2022-11-29T05:17:39.715Z,95460.53
2022-11-29T05:20:24.315Z,95462.22
2022-11-29T05:22:29.783Z,95468.09
2022-11-29T05:24:48.073Z,95462.09
2022-11-29T05:26:55.977Z,95453.38
2022-11-29T05:29:01.513Z,95461.16
2022-11-29T05:31:31.257Z,95468.03
2022-11-29T05:33:49.040Z,95462.97
2022-11-29T05:35:55.316Z,95462.00
2022-11-29T05:37:57.258Z,95459.31
2022-11-29T05:40:21.899Z,95466.50
2022-11-29T05:42:46.107Z,95472.50
2022-11-29T05:44:49.698Z,95473.34
2022-11-29T05:46:56.413Z,95471.59
2022-11-29T05:49:04.251Z,95479.09
2022-11-29T05:51:15.729Z,95484.75
2022-11-29T05:53:23.071Z,95467.91
2022-11-29T05:55:33.204Z,95476.28
2022-11-29T05:57:42.791Z,95469.28
2022-11-29T05:59:45.020Z,95464.00
2022-11-29T06:01:51.458Z,95470.25
2022-11-29T06:03:58.337Z,95464.00
2022-11-29T06:06:00.818Z,95470.94
2022-11-29T06:08:07.166Z,95465.75
2022-11-29T06:10:12.785Z,95470.19
2022-11-29T06:12:20.772Z,95469.28
2022-11-29T06:14:40.274Z,95466.03
2022-11-29T06:17:25.838Z,95471.63
2022-11-29T06:20:00.623Z,95467.00
2022-11-29T06:22:15.092Z,95469.69
2022-11-29T06:24:36.206Z,95473.22
2022-11-29T06:27:04.977Z,95466.88
2022-11-29T06:29:25.454Z,95473.84
2022-11-29T06:31:29.590Z,95465.25
2022-11-29T06:33:45.243Z,95467.53
2022-11-29T06:35:49.661Z,95469.22
2022-11-29T06:37:53.307Z,95456.09
2022-11-29T06:39:52.165Z,95464.88
2022-11-29T06:41:51.506Z,95468.94
2022-11-29T06:43:51.113Z,95471.94
2022-11-29T06:45:52.777Z,95464.97
2022-11-29T06:47:58.220Z,95475.72
2022-11-29T06:50:04.231Z,95479.38
2022-11-29T06:52:16.034Z,95477.53
2022-11-29T06:54:26.564Z,95484.75
2022-11-29T06:56:32.824Z,95479.28
2022-11-29T06:58:47.216Z,95486.44
2022-11-29T07:00:56.002Z,95486.28
2022-11-29T07:03:21.171Z,95484.59
2022-11-29T07:05:24.892Z,95481.00
2022-11-29T07:07:25.157Z,95497.13
2022-11-29T07:09:28.024Z,95482.19
2022-11-29T07:11:26.957Z,95487.28
2022-11-29T07:13:25.713Z,95488.28
2022-11-29T07:15:24.889Z,95482.81
2022-11-29T07:17:28.837Z,95484.31
2022-11-29T07:19:37.153Z,95484.41
2022-11-29T07:21:48.515Z,95484.84
2022-11-29T07:23:57.339Z,95488.13
2022-11-29T07:26:10.752Z,95483.44
2022-11-29T07:28:23.672Z,95493.69
2022-11-29T07:30:24.298Z,95489.97
2022-11-29T07:32:35.790Z,95495.25
2022-11-29T07:34:44.391Z,95498.28
2022-11-29T07:36:54.332Z,95499.53
2022-11-29T07:39:10.362Z,95486.19
2022-11-29T07:41:17.089Z,95487.38
2022-11-29T07:43:27.994Z,95484.09
2022-11-29T07:45:31.950Z,95481.50
2022-11-29T07:47:35.428Z,95480.06
2022-11-29T07:49:33.944Z,95482.06
2022-11-29T07:51:32.891Z,95486.00
2022-11-29T07:53:31.558Z,95486.78
2022-11-29T07:55:33.229Z,95490.38
2022-11-29T07:57:31.653Z,95492.88
2022-11-29T07:59:37.328Z,95483.50
2022-11-29T08:01:35.785Z,95485.66
2022-11-29T08:03:35.650Z,95491.16
2022-11-29T08:05:33.898Z,95485.34
2022-11-29T08:07:34.944Z,95489.22
2022-11-29T08:09:33.492Z,95490.81
2022-11-29T08:11:32.942Z,95485.69
2022-11-29T08:13:31.237Z,95502.16
2022-11-29T08:15:29.502Z,95494.09
2022-11-29T08:17:27.864Z,95490.66
2022-11-29T08:19:26.132Z,95488.72
2022-11-29T08:21:24.469Z,95490.38
2022-11-29T08:23:22.965Z,95496.41
2022-11-29T08:25:21.357Z,95496.59
2022-11-29T08:27:20.886Z,95500.28
2022-11-29T08:29:19.700Z,95490.47
2022-11-29T08:31:19.007Z,95498.59
2022-11-29T08:33:17.623Z,95492.22
2022-11-29T08:35:15.854Z,95500.50
2022-11-29T08:37:14.156Z,95495.16
2022-11-29T08:39:12.601Z,95502.56
2022-11-29T08:41:12.781Z,95498.69
2022-11-29T08:43:12.331Z,95502.00
2022-11-29T08:45:12.085Z,95506.97
2022-11-29T08:47:28.786Z,95510.00
2022-11-29T08:49:27.090Z,95510.75
2022-11-29T08:51:25.489Z,95508.22
2022-11-29T08:53:43.348Z,95504.19
2022-11-29T08:55:46.856Z,95506.06
2022-11-29T08:57:45.529Z,95501.09
2022-11-29T08:59:45.540Z,95497.84
2022-11-29T09:01:45.004Z,95496.97
2022-11-29T09:04:02.919Z,95491.97
2022-11-29T09:06:11.971Z,95501.66
2022-11-29T09:08:10.760Z,95495.13
2022-11-29T09:10:10.776Z,95497.63
2022-11-29T09:12:09.813Z,95498.78
2022-11-29T09:14:09.944Z,95489.66
2022-11-29T09:16:12.419Z,95492.06
2022-11-29T09:18:10.890Z,95483.16
2022-11-29T09:20:10.308Z,95487.53
2022-11-29T09:22:08.633Z,95490.75
2022-11-29T09:24:08.025Z,95491.38
2022-11-29T09:26:07.234Z,95490.72
2022-11-29T09:28:05.830Z,95475.75
2022-11-29T09:30:04.486Z,95473.72
2022-11-29T09:32:04.305Z,95474.91
2022-11-29T09:34:02.900Z,95476.75
2022-11-29T09:36:01.356Z,95473.47
2022-11-29T09:37:59.528Z,95473.47
2022-11-29T09:39:57.946Z,95464.22
2022-11-29T09:42:17.263Z,95453.78
2022-11-29T09:44:30.886Z,95452.97
2022-11-29T09:46:39.809Z,95454.56
2022-11-29T09:49:11.404Z,95448.59
2022-11-29T09:51:20.184Z,95458.00
2022-11-29T09:53:34.711Z,95453.16
2022-11-29T09:55:47.281Z,95449.06
2022-11-29T09:57:46.217Z,95450.94
2022-11-29T09:59:49.036Z,95446.25
2022-11-29T10:01:53.277Z,95446.56
2022-11-29T10:03:54.407Z,95448.59
2022-11-29T10:05:58.802Z,95435.66
2022-11-29T10:07:59.906Z,95437.03
2022-11-29T10:10:04.945Z,95440.31
2022-11-29T10:12:13.782Z,95428.88
2022-11-29T10:14:18.066Z,95426.38
2022-11-29T10:16:23.723Z,95425.44
2022-11-29T10:18:27.347Z,95429.22
2022-11-29T10:20:28.290Z,95419.47
2022-11-29T10:22:39.671Z,95420.78
2022-11-29T10:24:40.202Z,95422.72
2022-11-29T10:26:39.067Z,95418.44
2022-11-29T10:28:38.531Z,95414.00
2022-11-29T10:30:37.672Z,95419.09
2022-11-29T10:32:36.076Z,95420.63
2022-11-29T10:34:34.527Z,95418.00
2022-11-29T10:36:39.639Z,95409.16
2022-11-29T10:38:39.511Z,95409.88
2022-11-29T10:40:40.983Z,95408.50
2022-11-29T10:42:53.280Z,95406.94
2022-11-29T10:44:51.448Z,95404.88
2022-11-29T10:46:49.821Z,95416.41
2022-11-29T10:48:48.244Z,95414.19
2022-11-29T10:50:49.573Z,95419.88
2022-11-29T10:52:47.922Z,95413.81
2022-11-29T10:54:51.043Z,95409.50
2022-11-29T10:56:49.882Z,95407.66
2022-11-29T10:58:56.316Z,95407.66
2022-11-29T11:00:57.497Z,95402.03
2022-11-29T11:02:56.076Z,95400.91
2022-11-29T11:04:54.801Z,95401.50
2022-11-29T11:06:56.345Z,95403.53
2022-11-29T11:08:56.968Z,95400.94
2022-11-29T11:11:01.817Z,95401.16
2022-11-29T11:13:06.777Z,95401.41
2022-11-29T11:15:17.496Z,95403.19
2022-11-29T11:17:21.541Z,95403.75
2022-11-29T11:19:29.302Z,95404.31
2022-11-29T11:21:29.633Z,95407.03
2022-11-29T11:23:30.874Z,95405.78
2022-11-29T11:25:31.871Z,95402.81
2022-11-29T11:27:37.302Z,95410.19
2022-11-29T11:29:39.062Z,95414.28
2022-11-29T11:31:39.029Z,95421.63
2022-11-29T11:33:39.248Z,95429.72
2022-11-29T11:35:37.499Z,95420.13
2022-11-29T11:37:36.571Z,95413.72
2022-11-29T11:39:34.979Z,95414.75
2022-11-29T11:41:53.539Z,95422.00
2022-11-29T11:44:06.981Z,95418.28
2022-11-29T11:46:10.017Z,95418.84
2022-11-29T11:48:16.338Z,95422.84
2022-11-29T11:50:17.319Z,95421.25
2022-11-29T11:52:21.603Z,95416.81
2022-11-29T11:54:19.875Z,95421.44
2022-11-29T11:56:18.526Z,95419.00
2022-11-29T11:58:20.763Z,95415.69
2022-11-29T12:03:06.441Z,95407.09
2022-11-29T12:05:11.338Z,95409.91
2022-11-29T12:07:19.075Z,95411.41
2022-11-29T12:09:28.503Z,95415.88
2022-11-29T12:11:28.156Z,95414.38
2022-11-29T12:13:31.760Z,95400.97
2022-11-29T12:15:34.187Z,95404.66
2022-11-29T12:17:38.367Z,95402.06
2022-11-29T12:19:45.147Z,95407.03
2022-11-29T12:21:47.892Z,95404.88
2022-11-29T12:23:50.899Z,95401.09
2022-11-29T12:25:53.279Z,95396.56
2022-11-29T12:27:51.632Z,95400.38
2022-11-29T12:29:49.843Z,95400.56
2022-11-29T12:32:00.706Z,95397.22
2022-11-29T12:34:07.338Z,95401.03
2022-11-29T12:36:19.800Z,95402.06
2022-11-29T12:38:32.147Z,95400.41
2022-11-29T12:40:40.517Z,95406.56
2022-11-29T12:42:50.326Z,95406.38
2022-11-29T12:44:57.990Z,95410.34
2022-11-29T12:49:27.436Z,95407.94
2022-11-29T12:51:34.705Z,95402.81
2022-11-29T12:53:52.749Z,95406.44
2022-11-29T12:55:57.307Z,95406.75
2022-11-29T12:58:06.084Z,95405.97
2022-11-29T13:00:11.871Z,95408.81
2022-11-29T13:02:31.708Z,95416.22
2022-11-29T13:04:40.326Z,95407.41
2022-11-29T13:06:48.933Z,95407.22
2022-11-29T13:09:03.672Z,95419.78
2022-11-29T13:11:10.791Z,95419.13
2022-11-29T13:13:20.874Z,95412.97
2022-11-29T13:15:21.444Z,95411.13
2022-11-29T13:17:30.961Z,95424.34
2022-11-29T13:19:40.187Z,95422.91
2022-11-29T13:21:45.360Z,95423.69
2022-11-29T13:26:11.217Z,95433.91
2022-11-29T13:28:18.273Z,95424.88
2022-11-29T13:30:17.392Z,95431.03
2022-11-29T13:32:32.985Z,95427.88
2022-11-29T13:34:40.129Z,95429.53
2022-11-29T13:36:50.825Z,95424.22
2022-11-29T13:38:58.469Z,95421.06
2022-11-29T13:41:02.673Z,95417.25
2022-11-29T13:43:06.245Z,95432.13
2022-11-29T13:45:16.502Z,95429.78
2022-11-29T13:47:17.368Z,95430.44
2022-11-29T13:49:23.755Z,95431.56
2022-11-29T13:51:27.159Z,95425.59
2022-11-29T13:53:27.053Z,95424.09
2022-11-29T13:55:31.358Z,95427.53
2022-11-29T13:57:31.014Z,95431.16
2022-11-29T13:59:45.802Z,95419.91
2022-11-29T14:01:48.411Z,95421.09
2022-11-29T14:04:01.063Z,95423.88
2022-11-29T14:06:21.076Z,95426.56
2022-11-29T14:08:42.163Z,95430.44
2022-11-29T14:10:50.451Z,95431.38
2022-11-29T14:12:51.923Z,95426.84
2022-11-29T14:14:53.574Z,95426.19
2022-11-29T14:16:54.759Z,95427.28
2022-11-29T14:19:26.749Z,95418.81
2022-11-29T14:22:07.362Z,95425.13
2022-11-29T14:24:38.960Z,95424.28
2022-11-29T14:26:38.668Z,95426.06
2022-11-29T14:28:39.159Z,95429.84
2022-11-29T14:30:51.689Z,95424.63
2022-11-29T14:33:00.721Z,95426.41
2022-11-29T14:35:05.484Z,95425.63
2022-11-29T14:37:30.534Z,95418.84
2022-11-29T14:39:49.171Z,95426.66
2022-11-29T14:42:02.481Z,95430.28
2022-11-29T14:44:15.613Z,95431.94
2022-11-29T14:46:29.506Z,95426.84
2022-11-29T14:48:31.326Z,95436.47
2022-11-29T14:50:33.578Z,95435.31
2022-11-29T14:52:35.065Z,95429.28
2022-11-29T14:54:35.056Z,95436.31
2022-11-29T14:56:41.728Z,95429.78
2022-11-29T14:58:41.935Z,95434.41
2022-11-29T15:00:54.197Z,95426.09
2022-11-29T15:02:56.089Z,95433.16
2022-11-29T15:04:56.645Z,95435.09
2022-11-29T15:06:58.116Z,95437.63
2022-11-29T15:09:03.129Z,95429.16
2022-11-29T15:11:05.399Z,95429.31
2022-11-29T15:13:05.653Z,95433.69
2022-11-29T15:15:20.759Z,95432.06
2022-11-29T15:17:28.587Z,95433.75
2022-11-29T15:19:54.085Z,95425.78
2022-11-29T15:22:01.082Z,95426.97
2022-11-29T15:24:02.846Z,95417.56
2022-11-29T15:26:04.142Z,95423.09
2022-11-29T15:29:04.195Z,95419.75
2022-11-29T15:31:06.724Z,95421.91
2022-11-29T15:33:07.965Z,95428.16
2022-11-29T15:35:18.881Z,95433.50
2022-11-29T15:37:24.396Z,95434.50
2022-11-29T15:39:31.608Z,95437.53
2022-11-29T15:41:31.729Z,95431.91
2022-11-29T15:43:35.822Z,95443.84
2022-11-29T15:45:35.948Z,95428.69
2022-11-29T15:47:35.721Z,95436.25
2022-11-29T15:49:34.099Z,95435.59
2022-11-29T15:51:38.352Z,95433.50
2022-11-29T15:53:40.284Z,95441.88
2022-11-29T15:55:39.241Z,95438.03
2022-11-29T15:57:41.573Z,95438.28
2022-11-29T15:59:43.735Z,95430.97
2022-11-29T16:01:47.482Z,95428.69
2022-11-29T16:03:48.580Z,95430.22
2022-11-29T16:05:52.459Z,95435.84
2022-11-29T16:07:55.918Z,95434.19
2022-11-29T16:09:58.036Z,95432.56
2022-11-29T16:11:57.556Z,95436.94
2022-11-29T16:14:18.482Z,95436.00
2022-11-29T16:16:20.639Z,95438.56
2022-11-29T16:18:25.436Z,95436.00
2022-11-29T16:20:29.845Z,95435.03
2022-11-29T16:22:29.294Z,95435.69
2022-11-29T16:24:28.272Z,95433.09
2022-11-29T16:26:31.517Z,95438.28
2022-11-29T16:28:34.117Z,95428.06
2022-11-29T16:30:42.202Z,95436.84
2022-11-29T16:32:47.316Z,95430.13
2022-11-29T16:34:46.293Z,95431.91
2022-11-29T16:36:46.312Z,95438.78
2022-11-29T16:38:47.897Z,95427.47
2022-11-29T16:41:03.794Z,95434.19
2022-11-29T16:43:09.559Z,95442.06
2022-11-29T16:45:32.528Z,95437.53
2022-11-29T16:47:32.397Z,95428.97
2022-11-29T16:49:37.406Z,95431.41
2022-11-29T16:51:39.922Z,95431.25
2022-11-29T16:53:42.357Z,95433.75
2022-11-29T16:55:41.823Z,95439.09
2022-11-29T16:57:40.975Z,95431.91
2022-11-29T16:59:40.072Z,95435.00
2022-11-29T17:01:38.246Z,95439.06
2022-11-29T17:03:39.001Z,95440.31
2022-11-29T17:05:44.694Z,95441.38
2022-11-29T17:07:51.457Z,95436.59
2022-11-29T17:09:55.096Z,95446.41
2022-11-29T17:11:54.527Z,95440.38
2022-11-29T17:13:55.301Z,95441.22
2022-11-29T17:15:54.034Z,95444.81
2022-11-29T17:17:52.865Z,95442.22
2022-11-29T17:19:54.716Z,95437.00
2022-11-29T17:21:58.136Z,95446.56
2022-11-29T17:24:01.221Z,95456.81
2022-11-29T17:26:32.305Z,95448.13
2022-11-29T17:28:30.648Z,95461.53
2022-11-29T17:30:30.163Z,95448.94
2022-11-29T17:32:34.821Z,95451.38
2022-11-29T17:34:33.572Z,95456.91
2022-11-29T17:36:32.119Z,95458.25
2022-11-29T17:38:30.710Z,95458.84
2022-11-29T17:40:32.757Z,95470.22
2022-11-29T17:42:36.272Z,95469.56
2022-11-29T17:44:34.992Z,95472.25
2022-11-29T17:46:37.581Z,95475.06
2022-11-29T17:48:35.877Z,95470.22
2022-11-29T17:50:38.517Z,95477.25
2022-11-29T17:52:39.883Z,95484.88
2022-11-29T17:54:38.973Z,95481.72
2022-11-29T17:56:40.599Z,95485.97
2022-11-29T17:58:41.629Z,95489.31
2022-11-29T18:00:40.370Z,95493.94
2022-11-29T18:02:38.561Z,95486.91
2022-11-29T18:04:37.499Z,95488.41
2022-11-29T18:06:38.091Z,95483.91
2022-11-29T18:08:41.527Z,95484.63
2022-11-29T18:10:42.065Z,95485.31
2022-11-29T18:12:40.379Z,95492.97
2022-11-29T18:14:41.532Z,95482.13
2022-11-29T18:16:40.182Z,95480.94
2022-11-29T18:18:41.678Z,95479.28
2022-11-29T18:20:40.144Z,95475.75
2022-11-29T18:22:41.261Z,95476.69
2022-11-29T18:24:44.248Z,95469.72
2022-11-29T18:26:43.392Z,95472.41
2022-11-29T18:28:44.024Z,95469.13
2022-11-29T18:30:50.613Z,95464.78
2022-11-29T18:32:49.449Z,95463.31
2022-11-29T18:34:50.896Z,95461.66
2022-11-29T18:36:51.481Z,95458.22
2022-11-29T18:38:51.257Z,95467.84
2022-11-29T18:40:49.696Z,95458.47
2022-11-29T18:42:47.894Z,95468.72
2022-11-29T18:44:46.318Z,95468.66
2022-11-29T18:46:48.955Z,95463.03
2022-11-29T18:48:48.441Z,95471.22
2022-11-29T18:50:46.674Z,95470.72
2022-11-29T18:52:45.492Z,95462.63
2022-11-29T18:54:45.173Z,95459.97
2022-11-29T18:56:47.798Z,95460.06
2022-11-29T18:58:58.626Z,95462.03
2022-11-29T19:01:07.916Z,95461.94
2022-11-29T19:03:11.466Z,95451.28
2022-11-29T19:05:23.518Z,95464.47
2022-11-29T19:07:25.803Z,95469.25
2022-11-29T19:09:26.020Z,95466.97
2022-11-29T19:11:26.269Z,95469.50
2022-11-29T19:13:30.995Z,95464.28
2022-11-29T19:15:34.691Z,95460.09
2022-11-29T19:17:45.289Z,95460.94
2022-11-29T19:19:45.235Z,95456.72
2022-11-29T19:21:47.866Z,95464.53
2022-11-29T19:23:55.160Z,95472.31
2022-11-29T19:25:53.494Z,95464.69
2022-11-29T19:27:51.742Z,95473.09
2022-11-29T19:29:51.183Z,95471.41
2022-11-29T19:31:50.553Z,95474.91
2022-11-29T19:33:49.053Z,95475.38
2022-11-29T19:35:59.887Z,95482.19
2022-11-29T19:37:58.071Z,95483.19
2022-11-29T19:39:57.764Z,95478.66
2022-11-29T19:41:56.096Z,95476.78
2022-11-29T19:43:55.369Z,95473.59
2022-11-29T19:45:54.067Z,95472.25
2022-11-29T19:47:52.625Z,95480.13
2022-11-29T19:49:51.281Z,95481.81
2022-11-29T19:51:51.402Z,95474.91
2022-11-29T19:53:52.857Z,95473.25
2022-11-29T19:55:50.969Z,95478.59
2022-11-29T19:57:49.312Z,95469.19
2022-11-29T19:59:48.049Z,95473.56
2022-11-29T20:01:53.836Z,95467.63
2022-11-29T20:03:53.003Z,95465.84
2022-11-29T20:05:57.904Z,95477.25
2022-11-29T20:07:57.798Z,95470.22
2022-11-29T20:10:02.278Z,95470.06
2022-11-29T20:12:03.403Z,95472.00
2022-11-29T20:14:06.576Z,95470.13
2022-11-29T20:16:14.802Z,95472.72
2022-11-29T20:18:13.535Z,95470.13
2022-11-29T20:20:15.138Z,95465.84
2022-11-29T20:22:13.557Z,95460.72
2022-11-29T20:24:18.220Z,95459.88
2022-11-29T20:26:21.145Z,95458.22
2022-11-29T20:28:24.952Z,95460.56
2022-11-29T20:30:41.533Z,95459.66
2022-11-29T20:32:41.155Z,95449.84
2022-11-29T20:34:39.895Z,95458.47
2022-11-29T20:36:53.408Z,95454.13
2022-11-29T20:39:09.036Z,95457.75
2022-11-29T20:41:19.487Z,95446.81
2022-11-29T20:43:23.608Z,95455.38
2022-11-29T20:45:24.013Z,95451.09
2022-11-29T20:47:24.160Z,95441.53
2022-11-29T20:49:23.229Z,95443.28
2022-11-29T20:51:33.592Z,95446.72
2022-11-29T20:53:42.694Z,95457.06
2022-11-29T20:55:47.478Z,95450.94
2022-11-29T20:57:50.220Z,95446.47
2022-11-29T20:59:48.633Z,95448.91
2022-11-29T21:01:49.073Z,95441.13
2022-11-29T21:03:47.996Z,95437.63
2022-11-29T21:05:55.189Z,95442.47
2022-11-29T21:07:55.881Z,95440.13
2022-11-29T21:09:59.503Z,95439.22
2022-11-29T21:12:08.892Z,95435.59
2022-11-29T21:14:13.030Z,95432.66
2022-11-29T21:16:12.824Z,95433.06
2022-11-29T21:18:21.941Z,95437.53
2022-11-29T21:20:26.928Z,95442.03
2022-11-29T21:22:37.972Z,95446.47
2022-11-29T21:24:47.038Z,95452.44
2022-11-29T21:26:52.381Z,95445.47
2022-11-29T21:29:00.957Z,95455.19
2022-11-29T21:31:01.659Z,95448.13
2022-11-29T21:33:06.016Z,95456.19
2022-11-29T21:35:07.924Z,95453.75
2022-11-29T21:37:08.759Z,95450.41
2022-11-29T21:39:12.469Z,95453.16
2022-11-29T21:41:15.138Z,95446.50
2022-11-29T21:43:15.163Z,95456.22
2022-11-29T21:45:15.707Z,95450.19
2022-11-29T21:47:42.801Z,95441.56
2022-11-29T21:49:41.368Z,95440.78
2022-11-29T21:51:41.878Z,95437.44
2022-11-29T21:53:40.664Z,95436.47
2022-11-29T21:55:41.530Z,95445.59
2022-11-29T21:57:42.490Z,95447.34
2022-11-29T21:59:40.756Z,95447.19
2022-11-29T22:01:39.105Z,95448.84
2022-11-29T22:03:48.207Z,95455.75
2022-11-29T22:05:49.120Z,95442.16
2022-11-29T22:07:47.658Z,95440.72
2022-11-29T22:09:46.125Z,95431.47
2022-11-29T22:11:48.709Z,95428.03
2022-11-29T22:14:19.252Z,95434.06
2022-11-29T22:16:17.610Z,95436.50
2022-11-29T22:18:15.783Z,95434.59
2022-11-29T22:20:15.914Z,95429.66
2022-11-29T22:22:16.495Z,95437.50
2022-11-29T22:24:16.099Z,95428.88
2022-11-29T22:26:14.840Z,95428.66
2022-11-29T22:28:13.660Z,95418.19
2022-11-29T22:30:14.345Z,95424.06
2022-11-29T22:32:14.406Z,95427.47
2022-11-29T22:34:13.099Z,95417.34
2022-11-29T22:36:14.026Z,95422.59
2022-11-29T22:38:12.352Z,95424.47
2022-11-29T22:40:11.002Z,95428.13
2022-11-29T22:42:09.330Z,95419.31
2022-11-29T22:44:08.617Z,95423.63
2022-11-29T22:46:09.358Z,95425.53
2022-11-29T22:48:09.324Z,95421.19
2022-11-29T22:50:12.126Z,95418.03
2022-11-29T22:52:12.308Z,95423.22
2022-11-29T22:54:12.059Z,95420.13
2022-11-29T22:56:14.161Z,95417.19
2022-11-29T22:58:19.566Z,95423.75
2022-11-29T23:00:21.304Z,95421.72
2022-11-29T23:02:19.776Z,95419.53
2022-11-29T23:04:17.935Z,95413.56
2022-11-29T23:06:18.289Z,95418.19
2022-11-29T23:08:18.054Z,95420.88
2022-11-29T23:10:18.819Z,95416.56
2022-11-29T23:12:17.045Z,95415.81
2022-11-29T23:14:15.420Z,95416.97
2022-11-29T23:20:27.577Z,95415.31
2022-11-29T23:22:27.786Z,95412.75
2022-11-29T23:24:28.188Z,95412.94
2022-11-29T23:29:56.903Z,95407.75
2022-11-29T23:31:55.848Z,95409.50
2022-11-29T23:33:56.450Z,95405.16
2022-11-29T23:36:01.689Z,95409.44
2022-11-29T23:37:59.950Z,95413.78
2022-11-29T23:40:00.114Z,95411.25
2022-11-29T23:42:03.676Z,95411.25
2022-11-29T23:44:03.711Z,95415.75
2022-11-29T23:46:07.344Z,95411.41
2022-11-29T23:48:07.858Z,95407.06
2022-11-29T23:50:07.981Z,95406.22
2022-11-29T23:52:06.276Z,95417.63
2022-11-29T23:54:06.329Z,95420.28
2022-11-29T23:56:08.036Z,95414.09
2022-11-29T23:58:06.386Z,95417.78
